sensor_id;sensor_type;location;lat;lon;timestamp;pressure;altitude;pressure_sealevel;temperature;humidity
37298;BME280;30517;51.932;4.278;2024-03-02T00:00:49;99771.69;;;8.97;77.18
37298;BME280;30517;51.932;4.278;2024-03-02T00:03:30;99759.47;;;8.93;76.91
37298;BME280;30517;51.932;4.278;2024-03-02T00:06:11;99770.78;;;8.98;77.03
37298;BME280;30517;51.932;4.278;2024-03-02T00:08:56;99778.66;;;9.01;76.91
37298;BME280;30517;51.932;4.278;2024-03-02T00:11:39;99780.44;;;8.98;77.19
37298;BME280;30517;51.932;4.278;2024-03-02T00:14:20;99782.31;;;8.90;77.05
37298;BME280;30517;51.932;4.278;2024-03-02T00:17:01;99788.47;;;8.85;77.47
37298;BME280;30517;51.932;4.278;2024-03-02T00:19:42;99791.97;;;8.89;76.97
37298;BME280;30517;51.932;4.278;2024-03-02T00:22:23;99784.09;;;8.88;77.39
37298;BME280;30517;51.932;4.278;2024-03-02T00:25:05;99740.63;;;8.57;77.23
37298;BME280;30517;51.932;4.278;2024-03-02T00:27:48;99788.56;;;8.81;77.59
37298;BME280;30517;51.932;4.278;2024-03-02T00:33:27;99798.13;;;8.85;77.63
37298;BME280;30517;51.932;4.278;2024-03-02T00:36:12;99765.94;;;8.68;77.79
37298;BME280;30517;51.932;4.278;2024-03-02T00:38:54;99741.63;;;8.47;77.52
37298;BME280;30517;51.932;4.278;2024-03-02T00:41:35;99789.47;;;8.77;77.96
37298;BME280;30517;51.932;4.278;2024-03-02T00:44:20;99791.22;;;8.76;77.64
37298;BME280;30517;51.932;4.278;2024-03-02T00:47:04;99780.03;;;8.62;77.67
37298;BME280;30517;51.932;4.278;2024-03-02T00:49:46;99784.28;;;8.72;77.71
37298;BME280;30517;51.932;4.278;2024-03-02T00:52:28;99744.28;;;8.46;77.91
37298;BME280;30517;51.932;4.278;2024-03-02T00:55:09;99688.50;;;8.19;77.92
37298;BME280;30517;51.932;4.278;2024-03-02T00:57:51;99779.00;;;8.74;77.38
37298;BME280;30517;51.932;4.278;2024-03-02T01:00:32;99774.69;;;8.67;77.67
37298;BME280;30517;51.932;4.278;2024-03-02T01:03:13;99788.59;;;8.75;77.33
37298;BME280;30517;51.932;4.278;2024-03-02T01:05:53;99731.19;;;8.43;77.72
37298;BME280;30517;51.932;4.278;2024-03-02T01:08:35;99728.53;;;8.44;77.96
37298;BME280;30517;51.932;4.278;2024-03-02T01:11:17;99759.00;;;8.62;78.19
37298;BME280;30517;51.932;4.278;2024-03-02T01:13:58;99778.13;;;8.73;77.70
37298;BME280;30517;51.932;4.278;2024-03-02T01:16:39;99774.72;;;8.65;77.44
37298;BME280;30517;51.932;4.278;2024-03-02T01:19:20;99807.06;;;8.73;77.54
37298;BME280;30517;51.932;4.278;2024-03-02T01:22:01;99802.81;;;8.60;77.94
37298;BME280;30517;51.932;4.278;2024-03-02T01:24:42;99814.13;;;8.68;77.39
37298;BME280;30517;51.932;4.278;2024-03-02T01:27:23;99819.38;;;8.67;77.87
37298;BME280;30517;51.932;4.278;2024-03-02T01:30:04;99795.00;;;8.52;77.41
37298;BME280;30517;51.932;4.278;2024-03-02T01:32:45;99826.41;;;8.66;77.77
37298;BME280;30517;51.932;4.278;2024-03-02T01:35:26;99819.38;;;8.70;77.24
37298;BME280;30517;51.932;4.278;2024-03-02T01:38:07;99815.84;;;8.69;77.29
37298;BME280;30517;51.932;4.278;2024-03-02T01:40:48;99814.19;;;8.62;77.38
37298;BME280;30517;51.932;4.278;2024-03-02T01:43:29;99821.13;;;8.66;77.58
37298;BME280;30517;51.932;4.278;2024-03-02T01:46:10;99798.47;;;8.56;77.18
37298;BME280;30517;51.932;4.278;2024-03-02T01:48:50;99812.47;;;8.58;77.40
37298;BME280;30517;51.932;4.278;2024-03-02T01:51:31;99778.53;;;8.35;77.14
37298;BME280;30517;51.932;4.278;2024-03-02T01:54:13;99825.53;;;8.64;77.16
37298;BME280;30517;51.932;4.278;2024-03-02T01:56:53;99828.16;;;8.64;77.57
37298;BME280;30517;51.932;4.278;2024-03-02T01:59:34;99824.69;;;8.62;77.67
37298;BME280;30517;51.932;4.278;2024-03-02T02:02:15;99823.84;;;8.58;77.70
37298;BME280;30517;51.932;4.278;2024-03-02T02:04:56;99803.81;;;8.47;78.08
37298;BME280;30517;51.932;4.278;2024-03-02T02:07:37;99796.88;;;8.41;78.18
37298;BME280;30517;51.932;4.278;2024-03-02T02:10:18;99832.63;;;8.57;77.79
37298;BME280;30517;51.932;4.278;2024-03-02T02:12:58;99809.00;;;8.54;77.56
37298;BME280;30517;51.932;4.278;2024-03-02T02:15:40;99821.28;;;8.52;77.32
37298;BME280;30517;51.932;4.278;2024-03-02T02:18:21;99822.22;;;8.48;77.36
37298;BME280;30517;51.932;4.278;2024-03-02T02:21:02;99834.44;;;8.54;77.93
37298;BME280;30517;51.932;4.278;2024-03-02T02:23:43;99824.78;;;8.53;77.64
37298;BME280;30517;51.932;4.278;2024-03-02T02:26:28;99811.69;;;8.50;77.23
37298;BME280;30517;51.932;4.278;2024-03-02T02:29:09;99789.97;;;8.29;77.83
37298;BME280;30517;51.932;4.278;2024-03-02T02:31:50;99816.91;;;8.54;76.96
37298;BME280;30517;51.932;4.278;2024-03-02T02:34:31;99831.84;;;8.48;78.00
37298;BME280;30517;51.932;4.278;2024-03-02T02:37:12;99777.66;;;8.31;77.25
37298;BME280;30517;51.932;4.278;2024-03-02T02:39:53;99778.63;;;8.23;77.43
37298;BME280;30517;51.932;4.278;2024-03-02T02:42:33;99818.66;;;8.52;77.07
37298;BME280;30517;51.932;4.278;2024-03-02T02:45:14;99787.44;;;8.17;77.22
37298;BME280;30517;51.932;4.278;2024-03-02T02:47:56;99805.69;;;8.32;77.18
37298;BME280;30517;51.932;4.278;2024-03-02T02:50:36;99821.31;;;8.48;77.11
37298;BME280;30517;51.932;4.278;2024-03-02T02:53:17;99816.97;;;8.47;77.14
37298;BME280;30517;51.932;4.278;2024-03-02T02:55:58;99776.06;;;8.15;77.45
37298;BME280;30517;51.932;4.278;2024-03-02T02:58:42;99829.28;;;8.43;77.35
37298;BME280;30517;51.932;4.278;2024-03-02T03:01:23;99827.50;;;8.42;77.69
37298;BME280;30517;51.932;4.278;2024-03-02T03:04:04;99823.97;;;8.46;77.30
37298;BME280;30517;51.932;4.278;2024-03-02T03:06:45;99806.63;;;8.27;78.16
37298;BME280;30517;51.932;4.278;2024-03-02T03:09:26;99826.63;;;8.45;77.76
37298;BME280;30517;51.932;4.278;2024-03-02T03:12:07;99799.69;;;8.21;77.13
37298;BME280;30517;51.932;4.278;2024-03-02T03:14:48;99779.63;;;8.11;77.15
37298;BME280;30517;51.932;4.278;2024-03-02T03:17:29;99786.69;;;8.04;77.30
37298;BME280;30517;51.932;4.278;2024-03-02T03:20:10;99812.66;;;8.36;77.70
37298;BME280;30517;51.932;4.278;2024-03-02T03:22:51;99784.84;;;8.14;77.50
37298;BME280;30517;51.932;4.278;2024-03-02T03:25:32;99835.44;;;8.37;77.10
37298;BME280;30517;51.932;4.278;2024-03-02T03:28:12;99845.03;;;8.41;77.05
37298;BME280;30517;51.932;4.278;2024-03-02T03:30:53;99857.31;;;8.36;77.53
37298;BME280;30517;51.932;4.278;2024-03-02T03:33:34;99845.06;;;8.34;78.04
37298;BME280;30517;51.932;4.278;2024-03-02T03:36:15;99842.47;;;8.31;78.01
37298;BME280;30517;51.932;4.278;2024-03-02T03:38:56;99836.34;;;8.33;77.37
37298;BME280;30517;51.932;4.278;2024-03-02T03:41:37;99832.84;;;8.31;77.35
37298;BME280;30517;51.932;4.278;2024-03-02T03:44:18;99783.19;;;8.04;77.24
37298;BME280;30517;51.932;4.278;2024-03-02T03:46:59;99848.63;;;8.30;77.56
37298;BME280;30517;51.932;4.278;2024-03-02T03:49:42;99839.78;;;8.37;77.39
37298;BME280;30517;51.932;4.278;2024-03-02T03:52:23;99793.69;;;8.04;77.35
37298;BME280;30517;51.932;4.278;2024-03-02T03:55:04;99811.97;;;8.14;77.19
37298;BME280;30517;51.932;4.278;2024-03-02T03:57:45;99845.09;;;8.32;76.93
37298;BME280;30517;51.932;4.278;2024-03-02T04:00:26;99843.38;;;8.28;77.03
37298;BME280;30517;51.932;4.278;2024-03-02T04:03:07;99754.59;;;7.70;77.18
37298;BME280;30517;51.932;4.278;2024-03-02T04:05:48;99823.38;;;8.13;77.51
37298;BME280;30517;51.932;4.278;2024-03-02T04:08:29;99832.09;;;8.17;77.63
37298;BME280;30517;51.932;4.278;2024-03-02T04:11:09;99859.97;;;8.33;77.44
37298;BME280;30517;51.932;4.278;2024-03-02T04:13:50;99797.25;;;8.00;77.60
37298;BME280;30517;51.932;4.278;2024-03-02T04:16:31;99849.53;;;8.27;77.19
37298;BME280;30517;51.932;4.278;2024-03-02T04:19:12;99806.03;;;7.92;77.10
37298;BME280;30517;51.932;4.278;2024-03-02T04:21:53;99807.78;;;7.95;77.34
37298;BME280;30517;51.932;4.278;2024-03-02T04:24:34;99864.41;;;8.28;77.25
37298;BME280;30517;51.932;4.278;2024-03-02T04:27:15;99765.16;;;7.62;77.55
37298;BME280;30517;51.932;4.278;2024-03-02T04:29:56;99807.81;;;7.90;77.13
37298;BME280;30517;51.932;4.278;2024-03-02T04:32:37;99800.84;;;7.86;78.02
37298;BME280;30517;51.932;4.278;2024-03-02T04:35:18;99885.47;;;8.22;77.24
37298;BME280;30517;51.932;4.278;2024-03-02T04:37:59;99829.63;;;8.00;77.76
37298;BME280;30517;51.932;4.278;2024-03-02T04:40:40;99845.25;;;8.12;77.06
37298;BME280;30517;51.932;4.278;2024-03-02T04:43:21;99877.63;;;8.17;77.88
37298;BME280;30517;51.932;4.278;2024-03-02T04:46:02;99826.31;;;7.73;77.78
37298;BME280;30517;51.932;4.278;2024-03-02T04:48:43;99821.03;;;7.76;77.75
37298;BME280;30517;51.932;4.278;2024-03-02T04:51:24;99882.94;;;8.13;77.37
37298;BME280;30517;51.932;4.278;2024-03-02T04:54:05;99865.41;;;8.12;77.50
37298;BME280;30517;51.932;4.278;2024-03-02T04:56:46;99859.13;;;8.31;76.61
37298;BME280;30517;51.932;4.278;2024-03-02T04:59:29;99887.16;;;8.32;77.01
37298;BME280;30517;51.932;4.278;2024-03-02T05:02:11;99868.91;;;8.14;76.80
37298;BME280;30517;51.932;4.278;2024-03-02T05:04:54;99886.41;;;8.12;77.55
37298;BME280;30517;51.932;4.278;2024-03-02T05:07:34;99894.31;;;8.12;77.46
37298;BME280;30517;51.932;4.278;2024-03-02T05:10:15;99840.91;;;8.13;76.62
37298;BME280;30517;51.932;4.278;2024-03-02T05:12:56;99842.66;;;8.11;76.37
37298;BME280;30517;51.932;4.278;2024-03-02T05:15:39;99915.94;;;8.51;75.99
37298;BME280;30517;51.932;4.278;2024-03-02T05:18:20;99892.31;;;8.46;75.63
37298;BME280;30517;51.932;4.278;2024-03-02T05:21:01;99866.19;;;8.23;75.62
37298;BME280;30517;51.932;4.278;2024-03-02T05:23:42;99906.22;;;8.56;75.27
37298;BME280;30517;51.932;4.278;2024-03-02T05:26:24;99888.81;;;8.46;75.40
37298;BME280;30517;51.932;4.278;2024-03-02T05:29:05;99852.25;;;8.16;75.66
37298;BME280;30517;51.932;4.278;2024-03-02T05:31:46;99908.91;;;8.51;75.69
37298;BME280;30517;51.932;4.278;2024-03-02T05:34:27;99900.16;;;8.48;75.24
37298;BME280;30517;51.932;4.278;2024-03-02T05:37:07;99860.09;;;8.21;75.42
37298;BME280;30517;51.932;4.278;2024-03-02T05:39:48;99914.19;;;8.50;75.30
37298;BME280;30517;51.932;4.278;2024-03-02T05:42:29;99889.72;;;8.41;75.25
37298;BME280;30517;51.932;4.278;2024-03-02T05:45:10;99914.28;;;8.40;76.45
37298;BME280;30517;51.932;4.278;2024-03-02T05:47:51;99901.06;;;8.47;75.57
37298;BME280;30517;51.932;4.278;2024-03-02T05:50:33;99919.44;;;8.51;75.90
37298;BME280;30517;51.932;4.278;2024-03-02T05:53:14;99912.44;;;8.49;75.58
37298;BME280;30517;51.932;4.278;2024-03-02T05:55:55;99921.19;;;8.49;75.61
37298;BME280;30517;51.932;4.278;2024-03-02T05:58:36;99905.44;;;8.48;75.74
37298;BME280;30517;51.932;4.278;2024-03-02T06:01:45;99907.16;;;8.50;75.29
37298;BME280;30517;51.932;4.278;2024-03-02T06:04:27;99915.94;;;8.51;75.43
37298;BME280;30517;51.932;4.278;2024-03-02T06:07:08;99862.72;;;8.18;75.42
37298;BME280;30517;51.932;4.278;2024-03-02T06:09:49;99874.13;;;8.18;75.56
37298;BME280;30517;51.932;4.278;2024-03-02T06:12:31;99914.22;;;8.47;75.65
37298;BME280;30517;51.932;4.278;2024-03-02T06:15:12;99912.53;;;8.35;75.69
37298;BME280;30517;51.932;4.278;2024-03-02T06:17:54;99873.31;;;8.09;75.49
37298;BME280;30517;51.932;4.278;2024-03-02T06:20:35;99871.56;;;8.09;75.72
37298;BME280;30517;51.932;4.278;2024-03-02T06:23:17;99885.50;;;8.17;75.63
37298;BME280;30517;51.932;4.278;2024-03-02T06:25:58;99905.53;;;8.32;75.36
37298;BME280;30517;51.932;4.278;2024-03-02T06:28:39;99903.81;;;8.28;75.22
37298;BME280;30517;51.932;4.278;2024-03-02T06:31:20;99880.25;;;8.17;75.25
37298;BME280;30517;51.932;4.278;2024-03-02T06:34:03;99862.84;;;8.04;75.37
37298;BME280;30517;51.932;4.278;2024-03-02T06:36:44;99882.09;;;8.08;75.69
37298;BME280;30517;51.932;4.278;2024-03-02T06:39:25;99918.63;;;8.43;75.63
37298;BME280;30517;51.932;4.278;2024-03-02T06:42:07;99901.22;;;8.25;75.41
37298;BME280;30517;51.932;4.278;2024-03-02T06:44:48;99916.03;;;8.35;75.89
37298;BME280;30517;51.932;4.278;2024-03-02T06:47:29;99902.97;;;8.25;75.29
37298;BME280;30517;51.932;4.278;2024-03-02T06:50:11;99931.84;;;8.29;75.61
37298;BME280;30517;51.932;4.278;2024-03-02T06:52:52;99911.72;;;8.25;75.55
37298;BME280;30517;51.932;4.278;2024-03-02T06:55:33;99948.41;;;8.42;75.56
37298;BME280;30517;51.932;4.278;2024-03-02T06:58:14;99953.66;;;8.44;75.34
37298;BME280;30517;51.932;4.278;2024-03-02T07:00:55;99922.25;;;8.22;75.54
37298;BME280;30517;51.932;4.278;2024-03-02T07:03:36;99941.50;;;8.24;75.84
37298;BME280;30517;51.932;4.278;2024-03-02T07:06:19;99949.31;;;8.35;75.37
37298;BME280;30517;51.932;4.278;2024-03-02T07:09:00;99924.91;;;8.19;75.60
37298;BME280;30517;51.932;4.278;2024-03-02T07:11:41;99947.56;;;8.34;75.70
37298;BME280;30517;51.932;4.278;2024-03-02T07:14:22;99961.59;;;8.28;75.52
37298;BME280;30517;51.932;4.278;2024-03-02T07:17:23;99966.09;;;8.14;76.35
37298;BME280;30517;51.932;4.278;2024-03-02T07:20:04;99958.13;;;8.29;75.83
37298;BME280;30517;51.932;4.278;2024-03-02T07:22:46;99958.94;;;8.34;76.00
37298;BME280;30517;51.932;4.278;2024-03-02T07:25:27;99906.59;;;8.07;75.13
37298;BME280;30517;51.932;4.278;2024-03-02T07:28:08;99972.06;;;8.34;75.57
37298;BME280;30517;51.932;4.278;2024-03-02T07:31:02;99973.84;;;8.35;74.95
37298;BME280;30517;51.932;4.278;2024-03-02T07:33:44;99972.06;;;8.39;75.61
37298;BME280;30517;51.932;4.278;2024-03-02T07:36:26;99989.59;;;8.35;75.06
37298;BME280;30517;51.932;4.278;2024-03-02T07:39:07;99992.22;;;8.34;75.21
37298;BME280;30517;51.932;4.278;2024-03-02T07:41:48;99932.00;;;8.06;75.56
37298;BME280;30517;51.932;4.278;2024-03-02T07:44:29;99979.16;;;8.25;75.39
37298;BME280;30517;51.932;4.278;2024-03-02T07:47:10;99952.09;;;8.12;75.46
37298;BME280;30517;51.932;4.278;2024-03-02T07:49:51;99974.75;;;8.28;75.36
37298;BME280;30517;51.932;4.278;2024-03-02T07:52:32;99936.34;;;8.09;75.24
37298;BME280;30517;51.932;4.278;2024-03-02T07:55:13;99928.63;;;7.84;76.76
37298;BME280;30517;51.932;4.278;2024-03-02T07:57:54;99980.06;;;8.24;76.12
37298;BME280;30517;51.932;4.278;2024-03-02T08:00:35;99970.47;;;8.12;76.84
37298;BME280;30517;51.932;4.278;2024-03-02T08:03:16;99970.53;;;8.01;76.91
37298;BME280;30517;51.932;4.278;2024-03-02T08:05:57;99907.59;;;7.90;76.09
37298;BME280;30517;51.932;4.278;2024-03-02T08:08:38;99970.44;;;8.18;76.43
37298;BME280;30517;51.932;4.278;2024-03-02T08:11:20;99992.50;;;7.94;76.99
37298;BME280;30517;51.932;4.278;2024-03-02T08:14:01;99987.03;;;8.23;75.57
37298;BME280;30517;51.932;4.278;2024-03-02T08:16:42;99946.09;;;7.94;75.79
37298;BME280;30517;51.932;4.278;2024-03-02T08:19:23;99966.06;;;8.15;75.19
37298;BME280;30517;51.932;4.278;2024-03-02T08:22:04;99950.41;;;7.98;75.67
37298;BME280;30517;51.932;4.278;2024-03-02T08:24:45;99984.41;;;8.29;75.31
37298;BME280;30517;51.932;4.278;2024-03-02T08:27:26;99980.06;;;8.19;76.40
37298;BME280;30517;51.932;4.278;2024-03-02T08:30:07;99929.44;;;7.97;75.42
37298;BME280;30517;51.932;4.278;2024-03-02T08:32:49;99955.66;;;7.98;75.91
37298;BME280;30517;51.932;4.278;2024-03-02T08:35:30;99980.06;;;8.19;75.52
37298;BME280;30517;51.932;4.278;2024-03-02T08:38:15;99930.50;;;7.61;76.60
37298;BME280;30517;51.932;4.278;2024-03-02T08:40:56;99916.53;;;7.56;77.30
37298;BME280;30517;51.932;4.278;2024-03-02T08:43:37;99983.78;;;7.80;77.98
37298;BME280;30517;51.932;4.278;2024-03-02T08:46:18;99991.50;;;8.09;76.68
37298;BME280;30517;51.932;4.278;2024-03-02T08:48:59;99975.81;;;8.00;76.87
37298;BME280;30517;51.932;4.278;2024-03-02T08:51:40;99986.19;;;8.19;75.89
37298;BME280;30517;51.932;4.278;2024-03-02T08:54:21;99980.16;;;8.05;76.86
37298;BME280;30517;51.932;4.278;2024-03-02T08:57:02;99989.88;;;7.89;76.89
37298;BME280;30517;51.932;4.278;2024-03-02T08:59:43;99998.56;;;7.99;76.98
37298;BME280;30517;51.932;4.278;2024-03-02T09:02:24;99976.78;;;7.82;77.66
37298;BME280;30517;51.932;4.278;2024-03-02T09:05:05;99991.56;;;7.96;77.64
37298;BME280;30517;51.932;4.278;2024-03-02T09:07:46;99980.25;;;7.85;77.64
37298;BME280;30517;51.932;4.278;2024-03-02T09:10:27;99953.22;;;7.68;76.99
37298;BME280;30517;51.932;4.278;2024-03-02T09:13:08;100000.41;;;7.83;77.31
37298;BME280;30517;51.932;4.278;2024-03-02T09:15:49;99942.81;;;7.51;77.74
37298;BME280;30517;51.932;4.278;2024-03-02T09:18:30;99993.41;;;7.78;77.15
37298;BME280;30517;51.932;4.278;2024-03-02T09:21:11;99958.50;;;7.56;77.27
37298;BME280;30517;51.932;4.278;2024-03-02T09:23:51;100003.91;;;7.79;77.13
37298;BME280;30517;51.932;4.278;2024-03-02T09:26:32;100005.69;;;7.75;77.49
37298;BME280;30517;51.932;4.278;2024-03-02T09:29:13;99958.47;;;7.72;76.34
37298;BME280;30517;51.932;4.278;2024-03-02T09:31:54;100000.22;;;8.18;75.58
37298;BME280;30517;51.932;4.278;2024-03-02T09:34:35;100010.84;;;7.92;77.41
37298;BME280;30517;51.932;4.278;2024-03-02T09:37:16;99967.25;;;7.58;77.69
37298;BME280;30517;51.932;4.278;2024-03-02T09:39:57;99968.94;;;7.71;76.85
37298;BME280;30517;51.932;4.278;2024-03-02T09:42:38;100013.44;;;8.02;77.00
37298;BME280;30517;51.932;4.278;2024-03-02T09:45:23;100025.72;;;7.93;77.73
37298;BME280;30517;51.932;4.278;2024-03-02T09:48:04;99957.66;;;7.57;77.12
37298;BME280;30517;51.932;4.278;2024-03-02T09:50:46;100014.38;;;7.88;77.09
37298;BME280;30517;51.932;4.278;2024-03-02T09:53:31;99973.38;;;7.60;77.41
37298;BME280;30517;51.932;4.278;2024-03-02T09:56:12;100028.38;;;7.87;77.65
37298;BME280;30517;51.932;4.278;2024-03-02T09:58:53;100019.63;;;7.88;77.33
37298;BME280;30517;51.932;4.278;2024-03-02T10:01:34;100035.38;;;7.85;77.76
37298;BME280;30517;51.932;4.278;2024-03-02T10:04:15;99998.69;;;7.76;77.94
37298;BME280;30517;51.932;4.278;2024-03-02T10:07:16;100005.63;;;7.89;77.28
37298;BME280;30517;51.932;4.278;2024-03-02T10:09:57;100002.06;;;8.03;76.86
37298;BME280;30517;51.932;4.278;2024-03-02T10:12:39;99941.03;;;7.53;77.24
37298;BME280;30517;51.932;4.278;2024-03-02T10:15:23;99997.75;;;7.94;77.42
37298;BME280;30517;51.932;4.278;2024-03-02T10:18:05;99991.59;;;7.93;77.38
37298;BME280;30517;51.932;4.278;2024-03-02T10:20:45;99975.84;;;7.92;77.40
37298;BME280;30517;51.932;4.278;2024-03-02T10:23:28;99988.06;;;8.01;77.10
37298;BME280;30517;51.932;4.278;2024-03-02T10:26:29;99932.25;;;7.65;77.58
37298;BME280;30517;51.932;4.278;2024-03-02T10:29:10;99981.06;;;7.96;77.92
37298;BME280;30517;51.932;4.278;2024-03-02T10:31:51;99933.97;;;7.67;77.39
37298;BME280;30517;51.932;4.278;2024-03-02T10:34:32;99985.44;;;8.02;77.19
37298;BME280;30517;51.932;4.278;2024-03-02T10:37:14;99992.44;;;8.05;77.06
37298;BME280;30517;51.932;4.278;2024-03-02T10:39:55;99939.19;;;7.75;77.58
37298;BME280;30517;51.932;4.278;2024-03-02T10:42:37;99985.38;;;8.11;77.68
37298;BME280;30517;51.932;4.278;2024-03-02T10:45:20;99957.47;;;7.92;77.47
37298;BME280;30517;51.932;4.278;2024-03-02T10:48:02;99977.50;;;8.07;77.34
37298;BME280;30517;51.932;4.278;2024-03-02T10:50:45;99983.63;;;8.09;77.70
37298;BME280;30517;51.932;4.278;2024-03-02T10:53:26;99990.66;;;8.08;77.60
37298;BME280;30517;51.932;4.278;2024-03-02T10:56:07;99993.28;;;8.08;77.30
37298;BME280;30517;51.932;4.278;2024-03-02T10:58:51;100004.63;;;8.13;77.46
37298;BME280;30517;51.932;4.278;2024-03-02T11:01:38;99978.34;;;8.15;76.84
37298;BME280;30517;51.932;4.278;2024-03-02T11:04:21;99974.84;;;8.10;77.87
37298;BME280;30517;51.932;4.278;2024-03-02T11:07:06;99989.72;;;8.18;77.57
37298;BME280;30517;51.932;4.278;2024-03-02T11:09:59;99990.63;;;8.13;77.99
37298;BME280;30517;51.932;4.278;2024-03-02T11:12:53;99987.09;;;8.14;77.41
37298;BME280;30517;51.932;4.278;2024-03-02T11:15:36;99976.66;;;8.06;77.43
37298;BME280;30517;51.932;4.278;2024-03-02T11:18:17;99931.25;;;7.87;77.56
37298;BME280;30517;51.932;4.278;2024-03-02T11:20:59;99981.81;;;8.15;77.80
37298;BME280;30517;51.932;4.278;2024-03-02T11:23:40;99929.47;;;7.89;77.75
37298;BME280;30517;51.932;4.278;2024-03-02T11:26:22;99968.72;;;8.14;78.07
37298;BME280;30517;51.932;4.278;2024-03-02T11:29:07;99920.75;;;7.89;77.78
37298;BME280;30517;51.932;4.278;2024-03-02T11:31:58;99966.88;;;8.25;77.81
37298;BME280;30517;51.932;4.278;2024-03-02T11:34:44;99970.38;;;8.26;77.49
37298;BME280;30517;51.932;4.278;2024-03-02T11:37:26;99955.56;;;8.18;77.71
37298;BME280;30517;51.932;4.278;2024-03-02T11:40:09;99966.88;;;8.30;78.07
37298;BME280;30517;51.932;4.278;2024-03-02T11:42:50;99966.91;;;8.22;78.45
37298;BME280;30517;51.932;4.278;2024-03-02T11:45:31;99922.38;;;8.05;77.55
37298;BME280;30517;51.932;4.278;2024-03-02T11:48:14;99965.09;;;8.29;77.87
37298;BME280;30517;51.932;4.278;2024-03-02T11:50:58;99933.66;;;8.18;78.40
37298;BME280;30517;51.932;4.278;2024-03-02T11:53:42;99928.41;;;8.21;77.81
37298;BME280;30517;51.932;4.278;2024-03-02T11:56:24;99940.63;;;8.25;78.06
37298;BME280;30517;51.932;4.278;2024-03-02T11:59:06;99945.78;;;8.34;77.42
37298;BME280;30517;51.932;4.278;2024-03-02T12:01:47;99950.16;;;8.38;77.71
37298;BME280;30517;51.932;4.278;2024-03-02T12:04:29;99887.34;;;8.06;77.97
37298;BME280;30517;51.932;4.278;2024-03-02T12:07:11;99876.00;;;8.01;78.23
37298;BME280;30517;51.932;4.278;2024-03-02T12:10:00;99928.31;;;8.29;78.17
37298;BME280;30517;51.932;4.278;2024-03-02T12:12:45;99928.31;;;8.30;78.42
37298;BME280;30517;51.932;4.278;2024-03-02T12:15:27;99930.94;;;8.30;78.28
37298;BME280;30517;51.932;4.278;2024-03-02T12:18:08;99927.47;;;8.30;79.12
37298;BME280;30517;51.932;4.278;2024-03-02T12:20:50;99909.00;;;8.34;79.02
37298;BME280;30517;51.932;4.278;2024-03-02T12:23:32;99906.44;;;8.30;79.01
37298;BME280;30517;51.932;4.278;2024-03-02T12:26:14;99901.16;;;8.31;78.45
37298;BME280;30517;51.932;4.278;2024-03-02T12:28:54;99901.13;;;8.36;78.34
37298;BME280;30517;51.932;4.278;2024-03-02T12:31:35;99901.13;;;8.36;78.86
37298;BME280;30517;51.932;4.278;2024-03-02T12:34:17;99880.25;;;8.17;78.33
37298;BME280;30517;51.932;4.278;2024-03-02T12:36:58;99902.81;;;8.45;79.02
37298;BME280;30517;51.932;4.278;2024-03-02T12:39:39;99866.22;;;8.20;78.22
37298;BME280;30517;51.932;4.278;2024-03-02T12:42:20;99884.44;;;8.45;78.86
37298;BME280;30517;51.932;4.278;2024-03-02T12:45:01;99853.88;;;8.30;78.38
37298;BME280;30517;51.932;4.278;2024-03-02T12:47:42;99803.31;;;8.02;78.65
37298;BME280;30517;51.932;4.278;2024-03-02T12:50:23;99840.69;;;8.34;78.41
37298;BME280;30517;51.932;4.278;2024-03-02T12:53:04;99842.44;;;8.35;78.12
37298;BME280;30517;51.932;4.278;2024-03-02T12:55:45;99893.84;;;8.69;78.24
37298;BME280;30517;51.932;4.278;2024-03-02T12:58:26;99845.94;;;8.40;78.50
37298;BME280;30517;51.932;4.278;2024-03-02T13:01:08;99871.94;;;8.68;78.48
37298;BME280;30517;51.932;4.278;2024-03-02T13:03:50;99845.91;;;8.44;79.16
37298;BME280;30517;51.932;4.278;2024-03-02T13:06:32;99844.16;;;8.44;79.03
37298;BME280;30517;51.932;4.278;2024-03-02T13:09:15;99883.34;;;8.69;78.26
37298;BME280;30517;51.932;4.278;2024-03-02T13:11:56;99838.78;;;8.56;78.39
37298;BME280;30517;51.932;4.278;2024-03-02T13:14:37;99890.22;;;8.82;78.79
37298;BME280;30517;51.932;4.278;2024-03-02T13:17:19;99888.41;;;8.85;78.98
37298;BME280;30517;51.932;4.278;2024-03-02T13:20:00;99881.41;;;8.84;79.27
37298;BME280;30517;51.932;4.278;2024-03-02T13:22:41;99871.75;;;8.86;78.82
37298;BME280;30517;51.932;4.278;2024-03-02T13:25:22;99864.69;;;8.92;78.30
37298;BME280;30517;51.932;4.278;2024-03-02T13:28:03;99875.16;;;8.96;78.74
37298;BME280;30517;51.932;4.278;2024-03-02T13:30:44;99860.22;;;8.98;78.07
37298;BME280;30517;51.932;4.278;2024-03-02T13:33:25;99826.16;;;8.88;78.21
37298;BME280;30517;51.932;4.278;2024-03-02T13:36:06;99811.25;;;8.90;78.14
37298;BME280;30517;51.932;4.278;2024-03-02T13:38:47;99783.31;;;8.79;78.03
37298;BME280;30517;51.932;4.278;2024-03-02T13:41:28;99842.31;;;9.28;77.58
37298;BME280;30517;51.932;4.278;2024-03-02T13:44:09;99794.44;;;9.01;77.79
37298;BME280;30517;51.932;4.278;2024-03-02T13:46:49;99828.34;;;9.24;77.98
37298;BME280;30517;51.932;4.278;2024-03-02T13:49:32;99845.72;;;9.38;77.65
37298;BME280;30517;51.932;4.278;2024-03-02T13:52:16;99844.81;;;9.39;77.44
37298;BME280;30517;51.932;4.278;2024-03-02T13:54:57;99810.78;;;9.23;77.79
37298;BME280;30517;51.932;4.278;2024-03-02T13:57:38;99779.34;;;9.14;77.95
37298;BME280;30517;51.932;4.278;2024-03-02T14:00:19;99832.47;;;9.44;77.96
37298;BME280;30517;51.932;4.278;2024-03-02T14:03:00;99810.50;;;9.46;77.81
37298;BME280;30517;51.932;4.278;2024-03-02T14:05:41;99804.38;;;9.46;77.81
37298;BME280;30517;51.932;4.278;2024-03-02T14:08:22;99823.50;;;9.56;77.48
37298;BME280;30517;51.932;4.278;2024-03-02T14:11:03;99809.44;;;9.58;77.39
37298;BME280;30517;51.932;4.278;2024-03-02T14:13:44;99815.59;;;9.59;77.60
37298;BME280;30517;51.932;4.278;2024-03-02T14:16:29;99819.09;;;9.59;78.15
37298;BME280;30517;51.932;4.278;2024-03-02T14:19:11;99819.91;;;9.61;78.07
37298;BME280;30517;51.932;4.278;2024-03-02T14:21:52;99821.69;;;9.62;77.90
37298;BME280;30517;51.932;4.278;2024-03-02T14:24:33;99813.75;;;9.64;78.24
37298;BME280;30517;51.932;4.278;2024-03-02T14:27:14;99809.38;;;9.64;78.12
37298;BME280;30517;51.932;4.278;2024-03-02T14:29:55;99813.75;;;9.64;77.58